Latest Weather Observations for Truscott

IDD60801

Issued at 11:31 pm CST Wednesday 7 December 2016 (issued every 30 minutes, with the page automatically refreshed every 10 minutes)

About weather observations | Map of weather stations | Latest weather observations for NT | Other Formats
Station Details ID: 001020 Name: TRUSCOTT Lat: -14.09 Lon: 126.39 Height: 51.0 m
Data from the previous 72 hours. | See also: Recent months at Truscott
Date/Time
CST
Temp
°C
App
Temp
°C
Dew
Point
°C
Rel
Hum
%
Delta-T
°C
Wind Press
QNH
hPa
Press
MSL
hPa
Rain since
9am
mm
Dir  Spd
km/h
Gust
km/h
Spd
kts
Gust
kts
07/11:30pm 30.3 34.7 24.4 70 4.1 WNW 9 15 5 8 1007.8 1007.4 0.0
07/11:00pm 30.3 33.9 24.4 70 4.1 W 13 19 7 10 1007.7 1007.3 0.0
07/10:30pm 30.5 34.4 24.9 72 3.9 W 13 24 7 13 1007.5 1007.1 0.0
07/10:00pm 30.7 34.1 24.6 70 4.3 WNW 15 20 8 11 1007.5 1007.1 0.0
07/09:30pm 30.8 34.2 24.0 67 4.7 W 13 20 7 11 1007.3 1006.9 0.0
07/09:00pm 30.9 34.3 24.1 67 4.7 W 13 19 7 10 1007.3 1006.9 0.0
07/08:30pm 31.0 34.4 24.6 68 4.5 W 15 20 8 11 1007.0 1006.6 0.0
07/08:00pm 31.2 34.4 24.3 66 4.8 WSW 15 22 8 12 1006.9 1006.5 0.0
07/07:30pm 31.8 34.7 23.1 60 6.0 WSW 13 20 7 11 1006.6 1006.2 0.0
07/07:00pm 32.4 35.3 23.1 58 6.4 W 13 19 7 10 1005.8 1005.4 0.0
07/06:30pm 32.8 35.5 23.4 57 6.5 WNW 15 22 8 12 1005.0 1004.6 0.0
07/06:00pm 32.7 35.8 24.2 61 6.0 WNW 15 24 8 13 1005.3 1004.9 0.0
07/05:30pm 33.3 35.9 23.9 58 6.6 WNW 17 24 9 13 1005.1 1004.7 0.0
07/05:00pm 33.9 36.1 23.3 54 7.4 WNW 17 24 9 13 1005.0 1004.6 0.0
07/04:30pm 34.6 35.7 21.3 46 9.0 WNW 17 26 9 14 1005.1 1004.7 0.0
07/04:00pm 34.7 36.1 21.0 44 9.3 W 15 24 8 13 1005.5 1005.1 0.0
07/03:30pm 34.7 36.3 22.1 48 8.7 NW 17 24 9 13 1006.0 1005.6 0.0
07/03:00pm 34.6 36.6 23.0 51 8.0 NW 17 26 9 14 1006.1 1005.7 0.0
07/02:30pm 35.2 37.0 22.5 47 8.8 NNW 17 28 9 15 1006.4 1006.0 0.0
07/02:00pm 34.6 35.7 22.0 48 8.6 NNW 19 28 10 15 1006.8 1006.4 0.0
07/01:30pm 35.7 35.8 20.0 39 10.5 WNW 19 26 10 14 1007.1 1006.7 0.0
07/01:00pm 35.6 35.7 19.1 38 10.9 WNW 17 26 9 14 1007.4 1007.0 0.0
07/12:30pm 35.6 35.3 18.2 35 11.4 WNW 17 26 9 14 1007.8 1007.4 0.0
07/12:00pm 35.1 37.0 20.6 42 9.8 W 11 19 6 10 1008.2 1007.8 0.0
07/11:30am 34.2 36.1 20.6 45 9.1 SW 11 19 6 10 1008.7 1008.3 0.0
07/11:00am 34.0 36.2 21.1 47 8.7 WSW 11 17 6 9 1009.1 1008.7 0.0
07/10:30am 33.4 36.9 21.9 51 7.9 E 6 9 3 5 1009.4 1009.0 0.0
07/10:00am 32.8 36.9 21.6 51 7.6 WSW 2 7 1 4 1009.5 1009.1 0.0
07/09:30am 31.6 34.7 21.5 55 6.8 WSW 7 11 4 6 1009.5 1009.1 0.0
07/09:00am 30.8 34.6 22.7 62 5.5 W 7 9 4 5 1009.4 1009.0 0.0
07/08:30am 30.3 34.4 23.2 65 4.9 W 7 9 4 5 1009.4 1009.0 0.0
07/08:00am 29.6 33.6 23.1 68 4.5 WSW 7 9 4 5 1009.2 1008.8 0.0
07/07:30am 28.8 32.8 22.8 70 4.1 WSW 6 7 3 4 1008.9 1008.5 0.0
07/07:00am 28.6 31.8 22.3 68 4.3 SW 9 11 5 6 1008.7 1008.3 0.0
07/06:30am 27.8 31.6 22.7 74 3.5 SSW 7 11 4 6 1008.3 1007.9 0.0
07/06:00am 27.7 31.3 23.1 76 3.1 SSW 9 13 5 7 1008.2 1007.8 0.0
07/05:30am 27.6 31.5 23.0 76 3.1 SSW 7 9 4 5 1008.0 1007.6 0.0
07/05:00am 27.8 31.7 23.0 75 3.3 SW 7 9 4 5 1007.8 1007.4 0.0
07/04:30am 27.8 31.7 23.0 75 3.3 SW 7 9 4 5 1007.8 1007.4 0.0
07/04:00am 27.8 31.6 22.7 74 3.5 SSW 7 9 4 5 1007.7 1007.3 0.0
07/03:30am 28.1 31.8 22.6 72 3.7 SSW 7 9 4 5 1007.9 1007.5 0.0
07/03:00am 28.2 32.0 22.7 72 3.7 SSW 7 9 4 5 1008.1 1007.7 0.0
07/02:30am 28.2 31.6 22.7 72 3.7 SSW 9 11 5 6 1008.2 1007.8 0.0
07/02:00am 28.4 31.9 22.9 72 3.8 SSW 9 11 5 6 1008.4 1008.0 0.0
07/01:30am 28.6 32.4 22.8 71 4.0 SSW 7 9 4 5 1008.6 1008.2 0.0
07/01:00am 28.8 32.4 23.0 71 4.0 SSW 9 13 5 7 1009.0 1008.6 0.0
07/12:30am 29.2 32.6 23.4 71 4.0 SSW 11 15 6 8 1009.2 1008.8 0.0
07/12:00am 29.9 34.6 24.3 72 3.9 SW 7 9 4 5 1009.4 1009.0 0.0
 
Date/Time
CST
Temp
°C
App
Temp
°C
Dew
Point
°C
Rel
Hum
%
Delta-T
°C
Wind Press
QNH
hPa
Press
MSL
hPa
Rain since
9am
mm
Dir  Spd
km/h
Gust
km/h
Spd
kts
Gust
kts
06/11:30pm 30.1 34.4 24.3 71 4.1 W 9 15 5 8 1009.5 1009.1 0.0
06/11:00pm 30.2 33.6 24.1 70 4.2 W 13 19 7 10 1009.6 1009.2 0.0
06/10:30pm 30.2 34.0 24.1 70 4.3 W 11 15 6 8 1009.6 1009.2 0.0
06/10:00pm 30.2 34.6 24.4 71 4.1 W 9 13 5 7 1009.3 1008.9 0.0
06/09:30pm 30.3 34.2 24.2 70 4.3 W 11 13 6 7 1009.2 1008.8 0.0
06/09:00pm 30.6 34.2 23.8 67 4.7 W 11 15 6 8 1009.1 1008.7 0.0
06/08:30pm 30.8 33.6 23.7 66 4.9 WNW 15 20 8 11 1008.6 1008.2 0.0
06/08:00pm 30.8 33.5 23.5 65 5.0 W 15 24 8 13 1008.2 1007.8 0.0
06/07:30pm 30.9 34.0 23.5 64 5.1 NW 13 20 7 11 1007.7 1007.3 0.0
06/07:00pm 30.7 33.6 23.1 64 5.2 NW 13 20 7 11 1007.3 1006.9 0.0
06/06:30pm 31.0 33.5 23.1 63 5.4 NW 15 20 8 11 1006.9 1006.5 0.0
06/06:00pm 31.5 33.5 22.2 57 6.3 NNW 15 24 8 13 1006.4 1006.0 0.0
06/05:30pm 32.3 34.6 23.5 59 6.1 NW 17 26 9 14 1006.1 1005.7 0.0
06/05:00pm 32.4 33.6 22.5 56 6.8 NNW 20 32 11 17 1005.7 1005.3 0.0
06/04:30pm 32.1 32.9 22.5 57 6.6 N 22 32 12 17 1005.8 1005.4 0.0
06/04:00pm 33.0 33.9 21.5 50 7.8 NNW 19 30 10 16 1006.1 1005.7 0.0
06/03:30pm 33.4 33.6 20.5 46 8.7 NNW 20 32 11 17 1006.5 1006.1 0.0
06/03:00pm 33.9 34.7 21.3 47 8.5 NNW 19 30 10 16 1006.8 1006.4 0.0
06/02:30pm 33.7 33.0 19.4 43 9.5 NNW 22 30 12 16 1007.1 1006.7 0.0
06/02:00pm 32.9 34.2 22.4 54 7.2 NNW 19 28 10 15 1007.7 1007.3 0.0
06/01:30pm 33.7 34.6 20.8 46 8.7 NNW 17 24 9 13 1008.1 1007.7 0.0
06/01:00pm 33.3 34.4 20.5 47 8.6 NNW 15 24 8 13 1008.5 1008.1 0.0
06/12:30pm 34.5 36.5 20.8 44 9.2 WNW 11 19 6 10 1008.7 1008.3 0.0
06/12:00pm 33.3 34.6 20.8 48 8.4 SSW 15 26 8 14 1009.2 1008.8 0.0
06/11:30am 34.1 35.8 19.4 42 9.7 WSW 9 13 5 7 1009.5 1009.1 0.0
06/11:00am 33.3 36.1 21.5 50 8.0 W 9 13 5 7 1010.0 1009.6 0.0
06/10:30am 32.2 35.2 22.6 57 6.6 W 11 13 6 7 1010.3 1009.9 0.0
06/10:00am 32.5 35.5 22.0 54 7.2 WNW 9 15 5 8 1010.4 1010.0 0.0
06/09:30am 32.2 35.6 22.0 55 6.9 W 7 13 4 7 1010.3 1009.9 0.0
06/09:00am 31.0 34.5 22.9 62 5.6 WNW 9 11 5 6 1010.2 1009.8 0.0
06/08:30am 30.3 34.0 23.2 65 4.9 W 9 11 5 6 1010.0 1009.6 0.0
06/08:00am 29.7 34.2 23.9 71 4.0 W 7 9 4 5 1009.9 1009.5 0.0
06/07:30am 28.0 34.7 25.4 86 1.8 CALM 0 6 0 3 1009.9 1009.5 0.0
06/07:00am 27.1 33.0 25.3 90 1.3 SSE 4 7 2 4 1009.7 1009.3 0.0
06/06:30am 26.5 31.6 24.7 90 1.3 SSE 6 7 3 4 1009.2 1008.8 0.0
06/06:00am 26.7 31.8 24.7 89 1.4 SSE 6 7 3 4 1008.8 1008.4 0.0
06/05:30am 27.0 32.3 25.2 90 1.3 S 7 9 4 5 1008.5 1008.1 0.0
06/05:00am 27.0 32.4 25.2 90 1.3 S 6 7 3 4 1008.2 1007.8 0.0
06/04:30am 26.8 32.1 25.0 90 1.3 S 6 7 3 4 1007.8 1007.4 0.0
06/04:00am 27.9 33.3 25.1 85 2.0 WSW 6 6 3 3 1007.9 1007.5 0.0
06/03:30am 28.3 33.7 25.1 83 2.2 WSW 6 7 3 4 1008.0 1007.6 0.0
06/03:00am 27.9 34.3 24.9 84 2.1 CALM 0 4 0 2 1008.1 1007.7 0.0
06/02:30am 28.2 33.1 24.6 81 2.5 W 7 9 4 5 1008.2 1007.8 0.0
06/02:00am 28.2 33.0 24.4 80 2.6 SW 7 9 4 5 1008.5 1008.1 0.0
06/01:30am 28.4 33.2 24.2 78 2.9 WSW 6 9 3 5 1008.6 1008.2 0.0
06/01:00am 28.2 32.9 24.0 78 2.9 W 6 7 3 4 1008.8 1008.4 0.0
06/12:30am 28.2 32.9 24.0 78 2.9 WNW 6 7 3 4 1009.2 1008.8 0.0
06/12:00am 28.1 34.1 24.3 80 2.6 CALM 0 0 0 0 1009.5 1009.1 0.0
 
Date/Time
CST
Temp
°C
App
Temp
°C
Dew
Point
°C
Rel
Hum
%
Delta-T
°C
Wind Press
QNH
hPa
Press
MSL
hPa
Rain since
9am
mm
Dir  Spd
km/h
Gust
km/h
Spd
kts
Gust
kts
05/11:30pm 28.6 33.1 23.9 75 3.3 NW 7 9 4 5 1009.6 1009.2 0.0
05/11:00pm 28.3 34.2 24.1 78 2.9 CALM 0 0 0 0 1010.0 1009.6 0.0
05/10:30pm 28.7 33.4 24.0 76 3.3 NNW 6 6 3 3 1009.8 1009.4 0.0
05/10:00pm 29.1 33.8 24.0 74 3.5 NW 6 9 3 5 1009.6 1009.2 0.0
05/09:30pm 29.3 33.4 23.3 70 4.1 NW 7 9 4 5 1009.4 1009.0 0.0
05/09:00pm 29.4 33.6 23.1 69 4.3 NNW 6 9 3 5 1009.0 1008.6 0.0
05/08:30pm 29.7 33.2 22.9 67 4.7 N 9 11 5 6 1008.7 1008.3 0.0
05/08:00pm 29.9 33.9 23.8 70 4.2 N 9 13 5 7 1008.5 1008.1 0.0
05/07:30pm 30.2 33.7 22.9 65 5.0 N 9 15 5 8 1008.1 1007.7 0.0
05/07:00pm 31.5 32.1 17.8 44 8.8 N 11 15 6 8 1007.7 1007.3 0.0
05/06:30pm 31.8 32.4 17.7 43 9.1 NNW 11 15 6 8 1007.5 1007.1 0.0
05/06:00pm 32.3 34.3 19.9 48 8.2 NNW 9 15 5 8 1007.5 1007.1 0.0
05/05:30pm 32.5 33.5 19.4 46 8.6 NNW 13 17 7 9 1007.1 1006.7 0.0
05/05:00pm 33.5 34.0 19.2 43 9.4 NW 15 20 8 11 1006.8 1006.4 0.0
05/04:30pm 33.5 34.2 18.8 41 9.6 NNW 13 20 7 11 1006.7 1006.3 0.0
05/04:00pm 33.4 33.4 18.0 40 10.0 NNW 15 24 8 13 1006.8 1006.4 0.0
05/03:30pm 33.4 34.7 20.2 46 8.8 NNW 13 20 7 11 1007.2 1006.8 0.0
05/03:00pm 32.9 34.2 20.8 49 8.1 NNW 15 20 8 11 1007.5 1007.1 0.0
05/02:30pm 33.2 33.9 18.9 42 9.4 N 13 24 7 13 1008.0 1007.6 0.0
05/02:00pm 33.8 34.8 19.5 43 9.5 N 13 24 7 13 1008.3 1007.9 0.0
05/01:30pm 32.8 35.2 22.3 54 7.2 NNW 13 26 7 14 1008.7 1008.3 0.0
05/01:00pm 32.5 35.4 23.2 58 6.4 NNW 13 20 7 11 1008.8 1008.4 0.0
05/12:30pm 32.7 35.0 22.8 56 6.8 NNW 15 22 8 12 1008.9 1008.5 0.0
05/12:00pm 32.8 35.3 23.2 57 6.6 WNW 15 20 8 11 1009.4 1009.0 0.0
05/11:30am 32.0 33.8 21.8 54 6.9 NW 15 26 8 14 1009.7 1009.3 0.0
05/11:00am 32.1 34.6 22.5 57 6.6 NW 13 20 7 11 1009.8 1009.4 0.0
05/10:30am 31.8 34.2 21.6 54 6.9 N 11 15 6 8 1009.8 1009.4 0.0
05/10:00am 31.4 33.9 21.8 56 6.5 N 11 19 6 10 1009.8 1009.4 0.0
05/09:30am 30.9 34.6 23.3 64 5.3 N 9 15 5 8 1009.8 1009.4 0.0
05/09:00am 30.4 34.2 22.8 64 5.2 NW 7 13 4 7 1009.8 1009.4 0.0
05/08:30am 29.9 34.7 24.5 73 3.8 NNW 7 9 4 5 1009.7 1009.3 0.0
05/08:00am 29.7 34.8 24.6 74 3.6 NNW 6 9 3 5 1009.5 1009.1 0.0
05/07:30am 29.1 35.9 25.5 81 2.5 CALM 0 0 0 0 1009.3 1008.9 0.0
05/07:00am 28.7 34.6 25.3 82 2.4 NW 4 7 2 4 1009.1 1008.7 0.0
05/06:30am 28.4 34.0 25.4 84 2.1 WNW 6 7 3 4 1008.8 1008.4 0.0
05/06:00am 28.3 33.8 25.3 84 2.1 WNW 6 7 3 4 1008.5 1008.1 0.0
05/05:30am 28.0 35.0 25.8 88 1.6 CALM 0 7 0 4 1008.2 1007.8 0.0
05/05:00am 28.1 34.9 25.5 86 1.8 CALM 0 0 0 0 1008.1 1007.7 0.0
05/04:30am 28.6 34.2 25.4 83 2.3 WNW 6 7 3 4 1008.1 1007.7 0.0
05/04:00am 28.2 35.0 25.6 86 1.8 CALM 0 0 0 0 1008.0 1007.6 0.0
05/03:30am 28.1 34.6 25.1 84 2.1 CALM 0 0 0 0 1007.9 1007.5 0.0
05/03:00am 28.1 34.7 25.3 85 2.0 CALM 0 0 0 0 1008.0 1007.6 0.0
05/02:30am 28.0 34.6 25.2 85 2.0 CALM 0 0 0 0 1008.0 1007.6 0.0
05/02:00am 28.1 34.4 24.7 82 2.4 CALM 0 0 0 0 1008.1 1007.7 0.0
05/01:30am 28.5 35.0 25.1 82 2.4 CALM 0 0 0 0 1008.3 1007.9 0.0

Other Formats:

Comma delimited format used in spreadsheet applications
http://www.bom.gov.au/fwo/IDD60801/IDD60801.95101.axf

JavaScript Object Notation format (JSON) in row-major order
http://www.bom.gov.au/fwo/IDD60801/IDD60801.95101.json